ADDS METAR Data INFO
IDs: Format: Raw Decoded Include TAF

Data at: 0258 UTC 21 Jan 2018

KDYT 210235Z AUTO 23006KT 10SM CLR 01/M02 A2989 RMK AO2
KDYT 210216Z AUTO 22006KT 10SM CLR 01/M02 A2989 RMK AO2
KDYT 210155Z AUTO 23006KT 10SM CLR 02/M02 A2989 RMK AO2
KDYT 210135Z AUTO 22006KT 10SM CLR 01/M02 A2989 RMK AO2
KDYT 210115Z AUTO 21006KT 10SM CLR 01/M01 A2989 RMK AO2
KDYT 210055Z AUTO 00000KT 10SM CLR 03/M01 A2989 RMK AO2
KDYT 210035Z AUTO 20003KT 10SM CLR 03/M01 A2988 RMK AO2
KDYT 210015Z AUTO 22003KT 10SM SCT110 01/M01 A2988 RMK AO2
KDYT 202355Z AUTO 29006KT 10SM OVC110 02/M01 A2988 RMK AO2
KDYT 202335Z AUTO 24005KT 10SM BKN110 04/M01 A2987 RMK AO2
KDYT 202315Z AUTO 23007KT 10SM SCT110 03/M01 A2987 RMK AO2
KDYT 202255Z AUTO 22007KT 10SM CLR 04/M01 A2986 RMK AO2
KDYT 202235Z AUTO 22007KT 10SM SCT110 04/M01 A2986 RMK AO2
KDYT 202215Z AUTO 21007KT 10SM BKN110 04/M01 A2986 RMK AO2
KDYT 202155Z AUTO 22006KT 10SM SCT120 04/M01 A2985 RMK AO2
KDYT 202135Z AUTO 22009KT 10SM SCT120 05/M01 A2984 RMK AO2
KDYT 202115Z AUTO 22007KT 10SM CLR 04/00 A2983 RMK AO2
KDYT 202055Z AUTO 25006KT 10SM CLR 04/00 A2983 RMK AO2
KDYT 202035Z AUTO 29004KT 10SM CLR 04/00 A2982 RMK AO2
KDYT 202015Z AUTO 26004KT 10SM CLR 04/M01 A2982 RMK AO2
KDYT 201955Z AUTO 21004KT 10SM CLR 04/M01 A2981 RMK AO2
KDYT 201935Z AUTO 22006KT 10SM CLR 04/M01 A2982 RMK AO2
KDYT 201915Z AUTO 21006KT 10SM CLR 03/M01 A2982 RMK AO2
KDYT 201855Z AUTO 23006KT 10SM CLR 03/M01 A2983 RMK AO2
KDYT 201835Z AUTO 22006KT 10SM SCT090 SCT110 02/M01 A2984 RMK AO2
KDYT 201815Z AUTO 21006KT 10SM SCT090 02/M01 A2984 RMK AO2
KDYT 201755Z AUTO 20008KT 10SM SCT100 02/M01 A2984 RMK AO2
KDYT 201735Z AUTO 20004KT 10SM SCT100 01/M01 A2985 RMK AO2
KDYT 201715Z AUTO 20003KT 10SM SCT100 01/M01 A2985 RMK AO2
KDYT 201655Z AUTO 20004KT 10SM SCT110 01/M02 A2985 RMK AO2
KDYT 201635Z AUTO 20006KT 10SM SCT110 00/M02 A2985 RMK AO2
KDYT 201615Z AUTO 21004KT 10SM BKN110 M01/M02 A2985 RMK AO2
KDYT 201555Z AUTO 21005KT 10SM BKN110 M01/M02 A2985 RMK AO2
KDYT 201535Z AUTO 20007KT 10SM BKN110 M01/M02 A2984 RMK AO2
KDYT 201515Z AUTO 21003KT 10SM SCT110 M01/M02 A2984 RMK AO2
KDYT 201455Z AUTO 22006KT 10SM CLR M01/M03 A2983 RMK AO2
KDYT 201435Z AUTO 22006KT 10SM CLR M01/M03 A2982 RMK AO2
KDYT 201415Z AUTO 24007KT 10SM CLR M01/M03 A2982 RMK AO2
KDYT 201355Z AUTO 23007KT 10SM CLR M01/M03 A2981 RMK AO2
KDYT 201335Z AUTO 23007KT 10SM CLR M01/M03 A2981 RMK AO2
KDYT 201315Z AUTO 22009KT 10SM SCT120 M01/M03 A2980 RMK AO2
KDYT 201255Z AUTO 22008KT 10SM CLR M01/M02 A2979 RMK AO2
KDYT 201235Z AUTO 22010KT 10SM CLR M02/M03 A2979 RMK AO2
KDYT 201215Z AUTO 22008KT 10SM CLR M02/M03 A2977 RMK AO2
KDYT 201155Z AUTO 22009KT 10SM CLR M02/M03 A2976 RMK AO2
KDYT 201135Z AUTO 21006KT 10SM CLR M02/M03 A2975 RMK AO2
KDYT 201115Z AUTO 22008KT 10SM CLR M01/M03 A2976 RMK AO2
KDYT 201055Z AUTO 22008KT 10SM CLR M01/M03 A2975 RMK AO2
KDYT 201035Z AUTO 21009KT 10SM CLR M02/M03 A2974 RMK AO2
KDYT 201015Z AUTO 21009KT 10SM CLR M01/M03 A2974 RMK AO2
KDYT 200955Z AUTO 21008KT 10SM CLR M01/M03 A2973 RMK AO2
KDYT 200935Z AUTO 21005KT 10SM CLR M01/M02 A2973 RMK AO2
KDYT 200916Z AUTO 22008KT 10SM CLR 00/M02 A2973 RMK AO2
KDYT 200855Z AUTO 21006KT 10SM CLR 01/M02 A2972 RMK AO2
KDYT 200835Z AUTO 20007KT 10SM CLR 01/M02 A2972 RMK AO2
KDYT 200815Z AUTO 23003KT 10SM CLR 02/M01 A2971 RMK AO2
KDYT 200755Z AUTO 30007KT 10SM CLR 02/M01 A2970 RMK AO2
KDYT 200735Z AUTO 28007KT 10SM CLR 02/M01 A2969 RMK AO2
KDYT 200715Z AUTO 30013KT 10SM CLR 02/M01 A2967 RMK AO2
KDYT 200655Z AUTO 30014KT 10SM CLR 03/M01 A2966 RMK AO2
KDYT 200635Z AUTO 31012KT 10SM CLR 03/00 A2966 RMK AO2
KDYT 200615Z AUTO 29015G19KT 10SM CLR 04/00 A2965 RMK AO2
KDYT 200555Z AUTO 29010G21KT 10SM CLR 04/00 A2964 RMK AO2
KDYT 200535Z AUTO 29013KT 10SM CLR 04/M01 A2963 RMK AO2
KDYT 200515Z AUTO 28012G18KT 10SM CLR 04/M01 A2962 RMK AO2
KDYT 200455Z AUTO 28014G18KT 10SM CLR 04/M01 A2960 RMK AO2
KDYT 200435Z AUTO 28014G19KT 10SM CLR 04/M01 A2960 RMK AO2
KDYT 200415Z AUTO 27016G21KT 10SM CLR 04/M01 A2959 RMK AO2
KDYT 200355Z AUTO 27012G21KT 10SM CLR 04/M01 A2958 RMK AO2
KDYT 200335Z AUTO 26012KT 10SM CLR 05/M01 A2957 RMK AO2
KDYT 200315Z AUTO 25010G14KT 10SM CLR 04/M01 A2955 RMK AO2
KDYT 200255Z AUTO 25009KT 10SM CLR 04/M01 A2954 RMK AO2
KDYT 200235Z AUTO 23008KT 10SM CLR 03/M01 A2953 RMK AO2
KDYT 200215Z AUTO 22008KT 10SM CLR 03/M01 A2951 RMK AO2
KDYT 200155Z AUTO 22010KT 10SM CLR 03/M01 A2950 RMK AO2
KDYT 200135Z AUTO 23011KT 10SM CLR 04/M01 A2949 RMK AO2
KDYT 200115Z AUTO 23013KT 10SM CLR 04/M01 A2949 RMK AO2
KDYT 200055Z AUTO 23013KT 10SM CLR 04/M01 A2949 RMK AO2
KDYT 200035Z AUTO 23013KT 10SM CLR 04/M01 A2947 RMK AO2
KDYT 200015Z AUTO 23013KT 10SM CLR 04/M01 A2947 RMK AO2
KDYT 192355Z AUTO 22010KT 10SM CLR 04/M01 A2946 RMK AO2
KDYT 192335Z AUTO 22011KT 10SM SCT120 04/M01 A2945 RMK AO2
KDYT 192315Z AUTO 21013KT 10SM SCT120 04/M01 A2944 RMK AO2
KDYT 192255Z AUTO 21012KT 10SM CLR 04/M01 A2945 RMK AO2
KDYT 192235Z AUTO 22010KT 10SM CLR 04/M01 A2944 RMK AO2
KDYT 192215Z AUTO 22011KT 10SM CLR 04/M01 A2943 RMK AO2
KDYT 192155Z AUTO 23010KT 10SM CLR 04/M01 A2943 RMK AO2
KDYT 192135Z AUTO 23010KT 10SM CLR 04/M01 A2943 RMK AO2
KDYT 192115Z AUTO 22008KT 10SM CLR 04/M01 A2942 RMK AO2
KDYT 192055Z AUTO 23008KT 10SM CLR 04/M01 A2942 RMK AO2
KDYT 192035Z AUTO 23005KT 10SM CLR 04/M01 A2942 RMK AO2
KDYT 192015Z AUTO 22005KT 10SM CLR 03/M01 A2941 RMK AO2
KDYT 191955Z AUTO 23006KT 10SM CLR 03/M01 A2942 RMK AO2
KDYT 191935Z AUTO 25007KT 10SM CLR 03/M01 A2942 RMK AO2
KDYT 191915Z AUTO 23010KT 10SM CLR 03/M01 A2943 RMK AO2
KDYT 191855Z AUTO 23010KT 10SM CLR 03/M01 A2944 RMK AO2
KDYT 191836Z AUTO 23009KT 10SM CLR 03/M01 A2945 RMK AO2
KDYT 191815Z AUTO 24008KT 10SM CLR 03/M01 A2947 RMK AO2
KDYT 191755Z AUTO 23008KT 10SM CLR 02/M01 A2947 RMK AO2
KDYT 191735Z AUTO 22010KT 10SM CLR 02/M01 A2947 RMK AO2
KDYT 191715Z AUTO 22010KT 10SM CLR 02/M02 A2948 RMK AO2
KDYT 191655Z AUTO 23009KT 10SM CLR 02/M02 A2949 RMK AO2
KDYT 191635Z AUTO 23009KT 10SM CLR 01/M02 A2950 RMK AO2
KDYT 191615Z AUTO 22007KT 10SM CLR 01/M02 A2950 RMK AO2
KDYT 191555Z AUTO 23009KT 10SM CLR 01/M02 A2951 RMK AO2
KDYT 191535Z AUTO 21010KT 10SM CLR 01/M02 A2951 RMK AO2
KDYT 191515Z AUTO 22011KT 10SM CLR 00/M02 A2951 RMK AO2